Terminal Aerodrome Forecast
Issued by NWS Charleston, WV

Current Version | Previous Version | Text Only | Print | Product List | Glossary On
Versions: 1 2 3 4 5 6 7 8 9 10 11 12 13 14 15 16 17 18 19 20 21 22 23 24 25
000
FTUS41 KRLX 241500 AAA
TAFCRW
TAF AMD
KCRW 241514Z 2415/2512 VRB02KT P6SM SCT150
     FM241700 22006KT P6SM SCT120
     FM241900 24008KT P6SM FEW040
     FM242200 24008KT P6SM SCT100
     FM250900 25009KT 3SM -SHSN OVC027=

USA.gov is the U.S. government's official web portal to all federal, state and local government web resources and services.